Time;durP1;ratioP1;P1;durP2;ratioP2;P2;SDS_P1;SDS_P2;PMS_P1;PMS_P2;Temp;Humidity;BMP_temperature;BMP_pressure;BME280_temperature;BME280_humidity;BME280_pressure;Samples;Min_cycle;Max_cycle;Signal;HPM_P1;HPM_P2
2022/10/23 00:00:09;;;;;;;14.82;7.03;;;;;;;11.60;100.00;101342.09;5019579;28;20079;-82
2022/10/23 00:02:34;;;;;;;11.13;7.13;;;;;;;11.61;100.00;101338.53;5022807;28;20118;-83
2022/10/23 00:05:00;;;;;;;13.82;7.97;;;;;;;11.62;100.00;101345.38;5006663;28;20029;-82
2022/10/23 00:07:25;;;;;;;11.35;7.10;;;;;;;11.62;100.00;101340.19;5008547;28;20466;-83
2022/10/23 00:09:51;;;;;;;13.80;7.68;;;;;;;11.57;100.00;101324.13;5035127;28;20036;-83
2022/10/23 00:12:16;;;;;;;10.48;6.93;;;;;;;11.63;100.00;101331.44;5029691;28;20033;-82
2022/10/23 00:14:41;;;;;;;9.85;7.45;;;;;;;11.52;100.00;101317.63;4999672;28;20025;-82
2022/10/23 00:17:09;;;;;;;10.88;6.93;;;;;;;11.58;100.00;101333.56;5023446;28;20056;-83
2022/10/23 00:19:34;;;;;;;10.90;7.75;;;;;;;11.50;100.00;101324.72;5008182;28;20471;-82
2022/10/23 00:22:00;;;;;;;10.23;6.88;;;;;;;11.53;100.00;101327.91;5025242;28;20044;-83
2022/10/23 00:24:25;;;;;;;14.23;6.97;;;;;;;11.54;100.00;101321.78;5025083;28;20029;-83
2022/10/23 00:26:51;;;;;;;10.88;6.95;;;;;;;11.50;100.00;101330.75;5026391;28;20033;-83
2022/10/23 00:29:16;;;;;;;11.02;7.43;;;;;;;11.52;100.00;101323.66;5009819;28;20017;-83
2022/10/23 00:31:41;;;;;;;12.00;6.55;;;;;;;11.59;100.00;101335.25;5028123;28;20370;-83
2022/10/23 00:34:07;;;;;;;11.38;6.55;;;;;;;11.48;100.00;101311.88;5030853;28;20057;-83
2022/10/23 00:36:32;;;;;;;11.80;6.32;;;;;;;11.51;100.00;101327.19;5009409;28;20497;-83
2022/10/23 00:38:58;;;;;;;10.70;7.28;;;;;;;11.45;100.00;101322.47;5019048;28;20029;-83
2022/10/23 00:41:28;;;;;;;11.13;6.68;;;;;;;11.49;100.00;101323.91;5015947;28;20032;-82
2022/10/23 00:43:59;;;;;;;14.95;6.78;;;;;;;11.45;100.00;101319.88;5007925;28;20025;-83
2022/10/23 00:46:25;;;;;;;10.68;7.18;;;;;;;11.41;100.00;101324.50;5020873;28;20040;-82
2022/10/23 00:48:50;;;;;;;11.57;7.47;;;;;;;11.43;100.00;101329.56;5023693;28;20025;-83
2022/10/23 00:51:16;;;;;;;12.55;7.22;;;;;;;11.39;100.00;101328.97;4999471;28;20040;-83
2022/10/23 00:53:43;;;;;;;12.05;6.47;;;;;;;11.42;100.00;101333.94;5024275;28;20075;-82
2022/10/23 00:56:09;;;;;;;10.80;6.85;;;;;;;11.35;100.00;101326.72;5017497;28;20021;-82
2022/10/23 00:58:34;;;;;;;14.55;7.53;;;;;;;11.42;100.00;101338.31;5025269;28;20397;-83
2022/10/23 01:00:59;;;;;;;12.23;6.90;;;;;;;11.38;100.00;101327.31;5025668;28;20079;-83
2022/10/23 01:03:27;;;;;;;14.35;6.60;;;;;;;11.44;100.00;101336.41;5014750;28;20484;-83
2022/10/23 01:06:45;;;;;;;;;;;;;;;;;;;;;
2022/10/23 01:09:13;;;;;;;14.05;7.32;;;;;;;11.23;100.00;101306.88;5022350;28;20056;-83
2022/10/23 01:12:20;;;;;;;15.77;6.72;;;;;;;11.03;100.00;101274.69;5028715;28;20029;-83
2022/10/23 01:15:15;;;;;;;10.27;6.97;;;;;;;11.35;100.00;101318.94;5027496;28;20119;-83
2022/10/23 01:17:47;;;;;;;12.27;7.45;;;;;;;11.25;100.00;101310.22;5005734;28;20038;-83
2022/10/23 01:20:28;;;;;;;11.63;7.57;;;;;;;11.32;100.00;101311.38;5004750;28;20029;-83
2022/10/23 01:23:15;;;;;;;13.30;7.72;;;;;;;11.28;100.00;101315.16;5039232;28;20037;-83
2022/10/23 01:25:43;;;;;;;14.25;7.43;;;;;;;11.29;100.00;101309.00;5014458;28;20378;-84
2022/10/23 01:28:13;;;;;;;12.65;7.60;;;;;;;11.29;100.00;101306.41;5025132;28;20025;-83
2022/10/23 01:30:43;;;;;;;12.65;7.68;;;;;;;11.23;100.00;101299.09;5024608;28;20029;-83
2022/10/23 01:33:13;;;;;;;17.42;8.35;;;;;;;11.34;100.00;101304.28;5004317;28;20429;-83
2022/10/23 01:35:59;;;;;;;15.38;8.50;;;;;;;11.32;100.00;101311.38;5011028;28;20036;-83
2022/10/23 01:38:34;;;;;;;21.25;8.80;;;;;;;11.18;100.00;101289.06;5031589;28;20144;-83
2022/10/23 01:41:09;;;;;;;14.50;7.80;;;;;;;11.25;100.00;101303.25;5024354;28;20074;-84
2022/10/23 01:43:42;;;;;;;13.23;8.23;;;;;;;11.24;100.00;101298.16;5005814;28;20025;-83
2022/10/23 01:46:11;;;;;;;17.67;8.48;;;;;;;11.14;100.00;101288.50;5024120;28;20525;-84
2022/10/23 01:48:37;;;;;;;14.65;9.07;;;;;;;11.22;100.00;101300.88;5027964;28;20029;-83
2022/10/23 01:51:07;;;;;;;15.20;8.27;;;;;;;11.24;100.00;101308.53;5023601;28;20025;-83
2022/10/23 01:53:40;;;;;;;13.63;8.45;;;;;;;11.16;100.00;101296.16;5016271;28;20112;-83
2022/10/23 01:56:11;;;;;;;16.42;9.63;;;;;;;11.16;100.00;101285.78;5018757;28;20036;-83
2022/10/23 01:58:38;;;;;;;15.98;7.57;;;;;;;11.22;100.00;101294.84;5019645;28;20171;-83
2022/10/23 02:01:06;;;;;;;12.75;8.00;;;;;;;11.15;100.00;101279.75;5013698;28;20026;-83
2022/10/23 02:03:34;;;;;;;13.25;7.65;;;;;;;11.20;100.00;101275.97;5023930;28;20029;-83
2022/10/23 02:05:59;;;;;;;13.60;8.13;;;;;;;11.16;100.00;101257.22;5020943;28;20065;-83
2022/10/23 02:08:25;;;;;;;16.63;8.05;;;;;;;11.20;100.00;101260.41;5024281;28;20927;-83
2022/10/23 02:11:16;;;;;;;12.63;8.25;;;;;;;11.21;100.00;101262.06;5021602;28;20084;-82
2022/10/23 02:14:18;;;;;;;14.20;8.05;;;;;;;11.13;100.00;101245.31;5029682;28;20416;-83
2022/10/23 02:16:53;;;;;;;14.80;7.97;;;;;;;11.13;100.00;101250.50;4967273;28;20058;-83
2022/10/23 02:19:33;;;;;;;12.07;7.82;;;;;;;11.19;100.00;101266.56;4958382;28;20062;-83
2022/10/23 02:22:13;;;;;;;14.77;8.07;;;;;;;11.19;100.00;101256.16;4969873;28;20078;-83
2022/10/23 02:24:53;;;;;;;13.50;8.80;;;;;;;11.17;100.00;101257.09;4973443;28;20030;-83
2022/10/23 02:27:34;;;;;;;13.05;7.70;;;;;;;11.19;100.00;101258.75;4971966;28;20060;-83
2022/10/23 02:30:06;;;;;;;13.20;8.07;;;;;;;11.19;100.00;101250.97;4960387;28;20491;-83
2022/10/23 02:32:32;;;;;;;13.55;7.63;;;;;;;11.04;100.00;101238.22;4974050;28;20056;-83
2022/10/23 02:34:58;;;;;;;10.70;7.90;;;;;;;11.10;100.00;101249.91;4966902;28;20042;-83
2022/10/23 02:37:24;;;;;;;11.90;7.45;;;;;;;11.09;100.00;101249.06;4964199;28;20053;-83
2022/10/23 02:39:50;;;;;;;13.20;7.70;;;;;;;11.09;100.00;101250.84;4966814;28;20045;-83
2022/10/23 02:42:28;;;;;;;11.77;7.78;;;;;;;11.15;100.00;101247.78;4964890;28;20406;-84
2022/10/23 02:44:56;;;;;;;;;;;;;;;11.20;100.00;101250.03;4963405;28;20047;-83
2022/10/23 02:47:39;;;;;;;13.68;7.82;;;;;;;11.10;100.00;101235.16;4962910;28;20008;-83
2022/10/23 02:50:13;;;;;;;14.60;8.57;;;;;;;11.13;100.00;101240.09;4961263;28;20486;-83
2022/10/23 02:52:50;;;;;;;13.40;7.32;;;;;;;11.11;100.00;101235.97;4967532;28;20035;-84
2022/10/23 02:55:32;;;;;;;11.57;7.85;;;;;;;11.11;100.00;101241.97;5020604;28;20029;-83
2022/10/23 02:58:09;;;;;;;12.68;7.85;;;;;;;11.11;100.00;101241.16;5019556;28;20069;-83
2022/10/23 03:00:38;;;;;;;14.05;8.43;;;;;;;11.04;100.00;101222.63;5028971;28;20026;-83
2022/10/23 03:03:13;;;;;;;12.68;7.43;;;;;;;11.03;100.00;101210.59;5020062;28;20029;-84
2022/10/23 03:05:41;;;;;;;11.90;7.90;;;;;;;11.03;100.00;101202.00;5028841;28;20033;-83
2022/10/23 03:08:12;;;;;;;11.68;7.68;;;;;;;11.02;100.00;101203.78;5008537;28;20026;-83
2022/10/23 03:10:39;;;;;;;12.73;7.40;;;;;;;11.00;100.00;101203.03;5015678;28;20037;-84
2022/10/23 03:13:05;;;;;;;12.93;7.35;;;;;;;10.95;100.00;101192.19;5009208;28;20095;-83
2022/10/23 03:15:30;;;;;;;11.52;6.45;;;;;;;10.96;100.00;101191.28;5027096;28;20520;-83
2022/10/23 03:17:55;;;;;;;12.30;7.82;;;;;;;10.89;100.00;101174.50;5039172;28;20063;-83
2022/10/23 03:20:21;;;;;;;13.77;7.15;;;;;;;10.94;100.00;101187.94;5028234;28;20029;-83
2022/10/23 03:22:46;;;;;;;11.90;6.70;;;;;;;10.94;100.00;101177.56;5020177;28;20381;-83
2022/10/23 03:25:12;;;;;;;10.80;7.00;;;;;;;10.94;100.00;101176.75;5011377;28;20033;-83
2022/10/23 03:27:37;;;;;;;11.57;6.47;;;;;;;10.96;100.00;101178.28;5029952;28;20025;-83
2022/10/23 03:30:04;;;;;;;11.38;6.65;;;;;;;10.86;100.00;101165.19;5018056;28;20026;-82
2022/10/23 03:32:29;;;;;;;13.40;6.43;;;;;;;10.89;100.00;101164.13;5024038;28;20352;-83
2022/10/23 03:34:55;;;;;;;11.02;6.20;;;;;;;10.86;100.00;101154.00;5031522;28;20125;-83
2022/10/23 03:37:20;;;;;;;11.50;6.70;;;;;;;10.94;100.00;101167.19;5034088;28;20033;-83
2022/10/23 03:39:45;;;;;;;12.88;6.15;;;;;;;10.91;100.00;101154.47;5027362;28;20028;-84
2022/10/23 03:42:11;;;;;;;9.63;6.32;;;;;;;10.97;100.00;101161.78;5035442;28;20055;-83
2022/10/23 03:44:36;;;;;;;12.07;6.63;;;;;;;11.00;100.00;101161.50;5027565;28;20057;-84
2022/10/23 03:47:02;;;;;;;14.40;6.60;;;;;;;10.97;100.00;101154.00;5022096;28;20137;-83
2022/10/23 03:49:27;;;;;;;12.18;6.35;;;;;;;10.98;100.00;101144.44;5020673;28;20155;-83
2022/10/23 03:51:53;;;;;;;12.65;6.32;;;;;;;10.98;100.00;101140.06;5014694;28;20060;-83
2022/10/23 03:54:21;;;;;;;10.68;6.00;;;;;;;11.07;100.00;101152.34;5039014;28;20116;-84
2022/10/23 03:56:46;;;;;;;11.65;6.28;;;;;;;11.04;100.00;101136.97;5012451;28;20029;-84
2022/10/23 03:59:11;;;;;;;11.10;6.35;;;;;;;10.99;100.00;101123.53;5019971;28;20043;-83
2022/10/23 04:01:37;;;;;;;10.35;5.82;;;;;;;11.08;100.00;101135.81;5012386;28;20113;-83
2022/10/23 04:04:02;;;;;;;11.32;5.78;;;;;;;11.10;100.00;101136.50;5028187;28;20017;-83
2022/10/23 04:06:27;;;;;;;12.18;6.35;;;;;;;11.02;100.00;101128.50;5038034;28;20032;-83
2022/10/23 04:08:53;;;;;;;11.65;5.97;;;;;;;11.10;100.00;101130.47;5021231;28;20445;-83
2022/10/23 04:11:18;;;;;;;9.00;5.47;;;;;;;11.11;100.00;101126.94;5018919;28;20466;-83
2022/10/23 04:13:43;;;;;;;10.77;5.90;;;;;;;11.11;100.00;101125.16;5029361;28;20144;-83
2022/10/23 04:16:09;;;;;;;11.25;5.97;;;;;;;10.97;100.00;101104.69;5008966;28;20036;-83
2022/10/23 04:18:34;;;;;;;10.20;5.88;;;;;;;11.12;100.00;101113.81;5015090;28;20378;-84
2022/10/23 04:20:59;;;;;;;11.05;5.90;;;;;;;11.08;100.00;101109.84;5019845;28;20029;-83
2022/10/23 04:23:25;;;;;;;9.77;5.93;;;;;;;11.07;100.00;101105.59;5022083;28;20060;-84
2022/10/23 04:25:50;;;;;;;9.73;5.60;;;;;;;11.07;100.00;101094.41;5005251;28;20084;-84
2022/10/23 04:28:15;;;;;;;12.05;5.28;;;;;;;11.19;100.00;101110.78;5019377;28;20099;-83
2022/10/23 04:30:41;;;;;;;12.05;5.80;;;;;;;11.19;100.00;101114.19;5005676;28;20017;-83
2022/10/23 04:33:06;;;;;;;12.52;5.45;;;;;;;11.16;100.00;101102.25;5022950;28;20051;-83
2022/10/23 04:35:31;;;;;;;10.65;5.97;;;;;;;11.14;100.00;101096.38;5030731;28;20160;-83
2022/10/23 04:37:57;;;;;;;10.95;5.78;;;;;;;11.10;100.00;101088.94;5031980;28;20079;-83
2022/10/23 04:40:22;;;;;;;11.65;5.10;;;;;;;11.16;100.00;101098.84;5010671;28;20061;-83
2022/10/23 04:42:47;;;;;;;14.30;6.30;;;;;;;11.19;100.00;101093.44;5014795;28;20041;-83
2022/10/23 04:45:13;;;;;;;10.77;6.20;;;;;;;11.14;100.00;101090.38;5019848;28;20065;-83
2022/10/23 04:47:38;;;;;;;9.32;5.97;;;;;;;11.18;100.00;101096.94;5020248;28;20056;-83
2022/10/23 04:50:04;;;;;;;10.15;5.32;;;;;;;11.21;100.00;101095.88;5009714;28;20073;-83
2022/10/23 04:52:29;;;;;;;10.95;5.40;;;;;;;11.21;100.00;101103.69;5006519;28;20033;-83
2022/10/23 04:54:55;;;;;;;11.10;5.90;;;;;;;11.24;100.00;101090.44;5029635;28;20076;-83
2022/10/23 04:57:20;;;;;;;10.50;6.22;;;;;;;11.21;100.00;101088.91;5017186;28;20028;-83
2022/10/23 04:59:45;;;;;;;11.43;6.07;;;;;;;11.29;100.00;101088.28;5035319;28;20030;-83
2022/10/23 05:02:11;;;;;;;10.45;5.80;;;;;;;11.28;100.00;101084.06;5021322;28;20037;-83
2022/10/23 05:04:36;;;;;;;12.40;5.43;;;;;;;11.28;100.00;101081.47;5028226;28;20037;-83
2022/10/23 05:07:01;;;;;;;10.57;6.50;;;;;;;11.28;100.00;101089.25;5021883;28;20034;-83
2022/10/23 05:09:27;;;;;;;9.43;5.75;;;;;;;11.24;100.00;101074.84;5020070;28;20021;-83
2022/10/23 05:11:53;;;;;;;12.13;6.32;;;;;;;11.26;100.00;101067.78;5027510;28;20025;-83
2022/10/23 05:14:18;;;;;;;13.52;5.82;;;;;;;11.33;100.00;101089.72;5019735;28;20021;-83
2022/10/23 05:16:49;;;;;;;10.55;5.45;;;;;;;11.37;100.00;101091.13;5034488;28;20111;-83
2022/10/23 05:19:20;;;;;;;12.88;5.88;;;;;;;11.38;100.00;101090.16;5021335;28;20029;-83
2022/10/23 05:21:48;;;;;;;10.10;6.30;;;;;;;11.33;100.00;101079.31;5021833;28;20036;-83
2022/10/23 05:24:13;;;;;;;9.52;5.68;;;;;;;11.39;100.00;101089.22;5026858;28;20040;-83
2022/10/23 05:26:39;;;;;;;10.13;6.07;;;;;;;11.35;100.00;101070.44;5009545;28;20037;-83
2022/10/23 05:29:04;;;;;;;10.38;5.40;;;;;;;11.37;100.00;101059.94;5011499;28;20033;-83
2022/10/23 05:31:32;;;;;;;17.08;6.90;;;;;;;11.42;100.00;101068.19;5016835;28;20466;-83
2022/10/23 05:33:59;;;;;;;12.55;5.50;;;;;;;11.47;100.00;101065.19;5012513;28;20032;-83
2022/10/23 05:36:25;;;;;;;10.63;6.13;;;;;;;11.42;100.00;101070.81;5019893;28;20549;-83
2022/10/23 05:38:50;;;;;;;14.20;5.57;;;;;;;11.45;100.00;101070.53;5020773;28;20037;-83
2022/10/23 05:41:16;;;;;;;12.25;5.88;;;;;;;11.47;100.00;101065.19;5000983;28;20471;-84
2022/10/23 05:43:42;;;;;;;14.43;6.72;;;;;;;11.49;100.00;101068.53;5026529;28;20036;-83
2022/10/23 05:46:08;;;;;;;12.45;6.47;;;;;;;11.49;100.00;101061.56;5033122;28;20039;-83
2022/10/23 05:48:33;;;;;;;10.43;6.18;;;;;;;11.53;100.00;101064.72;5009370;28;20060;-83
2022/10/23 05:51:07;;;;;;;14.05;6.20;;;;;;;11.51;100.00;101057.03;5030129;28;20037;-83
2022/10/23 05:53:32;;;;;;;10.40;5.60;;;;;;;11.51;100.00;101057.03;5027605;28;20051;-83
2022/10/23 05:56:06;;;;;;;12.05;5.68;;;;;;;11.56;100.00;101065.28;5007451;28;20037;-83
2022/10/23 05:58:31;;;;;;;11.35;5.57;;;;;;;11.58;100.00;101058.19;5013663;28;20100;-83
2022/10/23 06:00:57;;;;;;;11.57;6.32;;;;;;;11.56;100.00;101054.91;5006629;28;20044;-84
2022/10/23 06:03:22;;;;;;;12.38;6.53;;;;;;;11.53;100.00;101049.97;5016776;28;20091;-83
2022/10/23 06:05:49;;;;;;;10.85;5.45;;;;;;;11.56;100.00;101049.69;5024903;28;20029;-84
2022/10/23 06:08:14;;;;;;;12.25;5.43;;;;;;;11.60;100.00;101045.91;5020452;28;20037;-83
2022/10/23 06:10:40;;;;;;;10.05;5.43;;;;;;;11.54;100.00;101030.84;4998076;28;20076;-83
2022/10/23 06:13:05;;;;;;;11.40;5.35;;;;;;;11.54;100.00;101040.41;5026600;28;20024;-83
2022/10/23 06:15:31;;;;;;;8.75;4.65;;;;;;;11.56;100.00;101043.69;5016473;28;20426;-83
2022/10/23 06:18:03;;;;;;;9.15;5.97;;;;;;;11.58;100.00;101047.78;5013044;28;20528;-83
2022/10/23 06:20:29;;;;;;;12.20;6.18;;;;;;;11.60;100.00;101034.69;5011995;28;20113;-83
2022/10/23 06:22:54;;;;;;;9.27;5.57;;;;;;;11.52;100.00;101022.31;5024036;28;20140;-83
2022/10/23 06:25:19;;;;;;;12.80;6.55;;;;;;;11.54;100.00;101017.84;5024033;28;20037;-83
2022/10/23 06:27:45;;;;;;;12.18;6.18;;;;;;;11.58;100.00;101026.19;4998867;28;20040;-83
2022/10/23 06:30:11;;;;;;;10.60;6.30;;;;;;;11.51;100.00;101015.47;5032356;28;20029;-83
2022/10/23 06:32:36;;;;;;;11.55;5.47;;;;;;;11.55;100.00;101011.69;5024152;28;20393;-82
2022/10/23 06:35:02;;;;;;;14.32;5.97;;;;;;;11.61;100.00;101021.56;5024189;28;20064;-83
2022/10/23 06:37:27;;;;;;;9.63;6.10;;;;;;;11.53;100.00;101008.41;5029011;28;20036;-83
2022/10/23 06:39:53;;;;;;;10.35;6.13;;;;;;;11.59;100.00;101015.69;4997039;28;20036;-83
2022/10/23 06:42:18;;;;;;;8.23;4.95;;;;;;;11.59;100.00;101015.69;5018727;28;20025;-83
2022/10/23 06:44:43;;;;;;;13.15;5.10;;;;;;;11.59;100.00;101007.91;5022080;28;20064;-83
2022/10/23 06:47:13;;;;;;;8.68;5.43;;;;;;;11.63;100.00;101013.66;5012600;28;20053;-83
2022/10/23 06:49:38;;;;;;;12.23;6.13;;;;;;;11.56;100.00;101002.94;5033356;28;20032;-83
2022/10/23 06:52:04;;;;;;;16.05;6.32;;;;;;;11.56;100.00;101010.72;5037108;28;20060;-83
2022/10/23 06:54:29;;;;;;;10.70;5.15;;;;;;;11.60;100.00;100993.94;5033311;28;20532;-83
2022/10/23 06:56:54;;;;;;;10.45;5.85;;;;;;;11.63;100.00;101000.66;5030356;28;20133;-83
2022/10/23 06:59:20;;;;;;;10.60;5.75;;;;;;;11.58;100.00;100989.81;5029052;28;20480;-83
2022/10/23 07:01:45;;;;;;;8.75;5.07;;;;;;;11.70;100.00;101005.22;5019409;28;20468;-83
2022/10/23 07:04:13;;;;;;;13.30;6.60;;;;;;;11.68;100.00;101001.91;5016270;28;20026;-83
2022/10/23 07:06:40;;;;;;;12.90;4.90;;;;;;;11.67;100.00;100995.09;5023172;28;20494;-83
2022/10/23 07:09:05;;;;;;;10.65;5.15;;;;;;;11.70;100.00;100999.22;5014574;28;20494;-83
2022/10/23 07:11:31;;;;;;;10.25;5.57;;;;;;;11.70;100.00;101000.03;5019487;28;20052;-83
2022/10/23 07:13:56;;;;;;;10.52;5.82;;;;;;;11.67;100.00;100992.47;5024372;28;20508;-83
2022/10/23 07:16:33;;;;;;;10.50;5.40;;;;;;;11.75;100.00;100991.84;5009641;28;20056;-85
2022/10/23 07:19:05;;;;;;;12.75;5.30;;;;;;;11.73;100.00;100993.75;5010988;28;20040;-86
2022/10/23 07:21:34;;;;;;;11.38;5.00;;;;;;;11.53;100.00;100960.84;5021004;28;20074;-85
2022/10/23 07:24:00;;;;;;;;;;;;;;;11.85;100.00;100999.72;5028440;28;20022;-84
2022/10/23 07:26:31;;;;;;;13.68;4.72;;;;;;;11.85;100.00;100999.72;5034770;28;19979;-86
2022/10/23 07:28:57;;;;;;;10.45;5.32;;;;;;;11.81;100.00;100995.69;5026973;28;20037;-83
2022/10/23 07:31:28;;;;;;;9.90;5.32;;;;;;;11.51;100.00;100940.16;5024678;28;20026;-84
2022/10/23 07:33:53;;;;;;;9.38;5.05;;;;;;;11.74;100.00;100968.59;4995933;28;20034;-84
2022/10/23 07:36:19;;;;;;;9.10;5.20;;;;;;;11.64;100.00;100948.59;5009438;28;20033;-84
2022/10/23 07:38:45;;;;;;;10.73;5.07;;;;;;;11.77;100.00;100960.53;5014335;28;20116;-84
2022/10/23 07:41:10;;;;;;;9.30;5.20;;;;;;;11.73;100.00;100951.34;5009378;28;20509;-84
2022/10/23 07:43:46;;;;;;;11.70;5.63;;;;;;;11.78;100.00;100957.81;5019320;28;20137;-84
2022/10/23 07:46:11;;;;;;;10.25;5.50;;;;;;;11.86;100.00;100957.19;5013566;28;20030;-84
2022/10/23 07:48:44;;;;;;;10.75;5.03;;;;;;;12.00;100.00;100969.84;5017013;28;20029;-84
2022/10/23 07:51:17;;;;;;;13.65;5.75;;;;;;;11.84;100.00;100935.72;4999589;28;20116;-84
2022/10/23 07:53:43;;;;;;;12.57;5.93;;;;;;;11.64;100.00;100907.03;5012826;28;20473;-84
2022/10/23 07:56:22;;;;;;;8.57;4.95;;;;;;;11.68;100.00;100907.56;5008651;28;20041;-84
2022/10/23 07:58:52;;;;;;;10.15;5.43;;;;;;;11.72;100.00;100910.75;4994253;28;20032;-84
2022/10/23 08:01:31;;;;;;;11.25;5.35;;;;;;;11.73;100.00;100907.19;5003445;28;20033;-84
2022/10/23 08:03:59;;;;;;;8.88;4.93;;;;;;;11.74;100.00;100903.63;5008819;28;20065;-84
2022/10/23 08:06:43;;;;;;;10.07;5.13;;;;;;;11.84;100.00;100917.50;5013811;28;20030;-84
2022/10/23 08:09:08;;;;;;;9.93;5.05;;;;;;;11.78;100.00;100898.03;4993829;28;20030;-84
2022/10/23 08:11:34;;;;;;;11.73;5.25;;;;;;;11.75;100.00;100889.66;5017634;28;20378;-84
2022/10/23 08:14:13;;;;;;;12.02;5.13;;;;;;;12.06;100.00;100932.91;5007990;28;20069;-85
2022/10/23 08:16:41;;;;;;;9.00;4.55;;;;;;;12.00;100.00;100917.84;5014894;28;20049;-85
2022/10/23 08:19:07;;;;;;;9.30;5.35;;;;;;;12.08;100.00;100933.59;5029526;28;20025;-84
2022/10/23 08:21:33;;;;;;;10.52;4.75;;;;;;;12.20;100.00;100949.91;5008391;28;20385;-85
2022/10/23 08:24:02;;;;;;;9.25;4.40;;;;;;;12.33;100.00;100954.88;5008773;28;20032;-84
2022/10/23 08:26:30;;;;;;;10.02;5.13;;;;;;;12.34;100.00;100951.34;4997630;28;20038;-85
2022/10/23 08:28:59;;;;;;;;;;;;;;;12.40;100.00;100946.41;5004791;28;20037;-83
2022/10/23 08:31:25;;;;;;;;;;;;;;;12.46;100.00;100952.88;5009426;28;19925;-83
2022/10/23 08:33:50;;;;;;;9.35;4.70;;;;;;;12.41;100.00;100936.84;4991750;28;19967;-83
2022/10/23 08:36:21;;;;;;;9.90;4.97;;;;;;;12.43;100.00;100929.72;5026878;28;20120;-84
2022/10/23 08:38:48;;;;;;;8.10;4.53;;;;;;;12.45;100.00;100927.81;5012076;28;20025;-83
2022/10/23 08:41:28;;;;;;;8.80;4.22;;;;;;;12.56;100.00;100940.72;5019768;28;20067;-84
2022/10/23 08:44:03;;;;;;;17.55;5.78;;;;;;;12.55;100.00;100917.41;5008861;28;20036;-83
2022/10/23 08:46:32;;;;;;;8.23;4.53;;;;;;;12.65;100.00;100926.88;5024674;28;20091;-83
2022/10/23 08:49:23;;;;;;;9.52;4.53;;;;;;;12.72;100.00;100925.34;4998181;28;20017;-83
2022/10/23 08:51:53;;;;;;;8.95;4.50;;;;;;;12.73;100.00;100919.22;5023020;28;20033;-83
2022/10/23 08:54:18;;;;;;;9.90;4.43;;;;;;;12.77;100.00;100930.97;5005397;28;20036;-84
2022/10/23 08:56:51;;;;;;;9.35;4.55;;;;;;;12.81;100.00;100917.69;5023018;28;20034;-87
2022/10/23 08:59:19;;;;;;;10.95;5.00;;;;;;;12.86;100.00;100923.31;5022544;28;20531;-85
2022/10/23 09:02:17;;;;;;;8.90;4.15;;;;;;;12.92;100.00;100914.97;5012074;28;20396;-85
2022/10/23 09:04:45;;;;;;;8.18;3.90;;;;;;;12.88;100.00;100903.16;5019334;28;20024;-85
2022/10/23 09:07:34;;;;;;;6.95;4.10;;;;;;;12.98;100.00;100911.81;5010880;28;20022;-85
2022/10/23 09:10:18;;;;;;;10.18;5.25;;;;;;;12.83;100.00;100880.16;5020821;28;20552;-85
2022/10/23 09:12:43;;;;;;;6.93;3.80;;;;;;;12.68;100.00;100860.72;5005166;28;20026;-85
2022/10/23 09:15:12;;;;;;;8.88;4.82;;;;;;;13.03;100.00;100907.00;5005087;28;20101;-85
2022/10/23 09:17:40;;;;;;;7.70;4.32;;;;;;;12.86;100.00;100869.47;5012017;28;20099;-84
2022/10/23 09:20:13;;;;;;;9.40;4.32;;;;;;;12.91;100.00;100876.88;4993369;28;20092;-84
2022/10/23 09:22:40;;;;;;;7.85;4.20;;;;;;;12.84;100.00;100862.75;5008391;28;20030;-85
2022/10/23 09:25:10;;;;;;;10.40;4.78;;;;;;;13.04;100.00;100893.03;5017269;28;20033;-83
2022/10/23 09:27:36;;;;;;;6.43;4.20;;;;;;;13.10;100.00;100887.25;5016555;28;20025;-84
2022/10/23 09:30:02;;;;;;;9.88;5.10;;;;;;;13.08;100.00;100877.94;5005674;28;20033;-83
2022/10/23 09:32:35;;;;;;;12.18;4.85;;;;;;;13.15;100.00;100877.25;5010096;28;20096;-84
2022/10/23 09:35:01;;;;;;;9.05;5.55;;;;;;;13.09;100.00;100859.56;5002760;28;20025;-84
2022/10/23 09:37:30;;;;;;;11.40;4.50;;;;;;;13.01;100.00;100821.19;5008200;28;20021;-84
2022/10/23 09:40:17;;;;;;;9.10;4.68;;;;;;;13.27;100.00;100852.69;5016470;28;20497;-84
2022/10/23 09:42:59;;;;;;;7.32;4.38;;;;;;;13.23;100.00;100846.13;5005598;28;20048;-84
2022/10/23 09:45:31;;;;;;;8.82;3.72;;;;;;;13.31;100.00;100862.84;5000683;28;20251;-83
2022/10/23 09:48:17;;;;;;;9.38;4.88;;;;;;;13.35;100.00;100872.81;5008774;28;20029;-84
2022/10/23 09:50:52;;;;;;;11.63;5.05;;;;;;;13.29;100.00;100850.75;5006407;28;20064;-83
2022/10/23 09:53:37;;;;;;;6.18;3.88;;;;;;;13.33;100.00;100850.50;5003461;28;20492;-84
2022/10/23 09:56:25;;;;;;;8.70;3.95;;;;;;;13.39;100.00;100839.50;4995024;28;20029;-84
2022/10/23 09:58:57;;;;;;;8.52;5.53;;;;;;;13.37;100.00;100846.66;5020288;28;20055;-83
2022/10/23 10:01:26;;;;;;;10.05;4.38;;;;;;;13.39;100.00;100840.31;5009993;28;20033;-83
2022/10/23 10:03:52;;;;;;;6.00;3.90;;;;;;;13.43;100.00;100835.66;5023068;28;20095;-83
2022/10/23 10:06:32;;;;;;;7.53;3.90;;;;;;;13.52;100.00;100829.56;5007491;28;20128;-83
2022/10/23 10:09:01;;;;;;;8.68;5.35;;;;;;;13.52;100.00;100821.75;4988295;28;20079;-83
2022/10/23 10:11:35;;;;;;;8.45;4.43;;;;;;;13.49;100.00;100809.03;5029838;28;20032;-84
2022/10/23 10:14:07;;;;;;;11.80;4.65;;;;;;;13.65;100.00;100819.66;5003027;28;20033;-84
2022/10/23 10:17:30;;;;;;;8.60;5.30;;;;;;;13.69;100.00;100820.97;5013465;28;20054;-84
2022/10/23 10:20:29;;;;;;;9.90;4.20;;;;;;;13.75;100.00;100817.78;4968507;28;20093;-84
2022/10/23 10:23:39;;;;;;;12.15;4.35;;;;;;;13.75;100.00;100804.75;4966264;28;20041;-84
2022/10/23 10:26:33;;;;;;;8.23;4.30;;;;;;;13.82;100.00;100811.03;4964952;28;20043;-84
2022/10/23 10:29:11;;;;;;;7.80;4.18;;;;;;;13.84;100.00;100803.06;4950463;28;20030;-83
2022/10/23 10:32:17;;;;;;;8.93;3.95;;;;;;;13.88;100.00;100799.22;4962447;28;20053;-82
2022/10/23 10:35:01;;;;;;;9.73;5.18;;;;;;;13.86;100.00;100785.47;4955376;28;20035;-83
2022/10/23 10:37:46;;;;;;;8.77;4.10;;;;;;;13.92;100.00;100778.84;4963004;28;20511;-83
2022/10/23 10:40:19;;;;;;;9.02;4.95;;;;;;;13.91;100.00;100772.00;4970786;28;20022;-84
2022/10/23 10:43:22;;;;;;;8.07;3.97;;;;;;;13.98;100.00;100757.41;4966693;28;20053;-84
2022/10/23 10:45:56;;;;;;;6.50;3.65;;;;;;;14.01;100.00;100757.13;4967720;28;20077;-83
2022/10/23 10:48:49;;;;;;;8.98;4.40;;;;;;;14.09;100.00;100755.38;4964319;28;20034;-84
2022/10/23 10:51:17;;;;;;;9.68;4.85;;;;;;;14.12;100.00;100753.47;4994280;28;20041;-84
2022/10/23 10:54:14;;;;;;;7.85;4.10;;;;;;;14.10;100.00;100748.38;5011439;28;20373;-84
2022/10/23 10:56:42;;;;;;;8.35;4.65;;;;;;;14.18;100.00;100758.91;5009107;28;20032;-84
2022/10/23 10:59:17;;;;;;;7.30;3.80;;;;;;;14.26;100.00;100761.56;4993033;28;20029;-84
2022/10/23 11:01:58;;;;;;;7.72;4.28;;;;;;;14.18;100.00;100745.84;5003586;28;20034;-84
2022/10/23 11:04:37;;;;;;;7.53;4.10;;;;;;;14.30;100.00;100755.09;5007376;28;20033;-83
2022/10/23 11:07:07;;;;;;;7.82;3.70;;;;;;;14.26;100.00;100727.66;5001172;28;20029;-84
2022/10/23 11:09:32;;;;;;;9.23;4.45;;;;;;;14.40;100.00;100746.34;4989344;28;20543;-83
2022/10/23 11:11:58;;;;;;;7.57;4.05;;;;;;;14.36;100.00;100735.41;5002586;28;20038;-84
2022/10/23 11:14:26;;;;;;;7.68;3.60;;;;;;;14.33;100.00;100707.81;5006817;28;20437;-83
2022/10/23 11:17:03;;;;;;;9.23;3.58;;;;;;;14.52;100.00;100734.72;4995883;28;20482;-84
2022/10/23 11:19:44;;;;;;;7.65;4.05;;;;;;;14.42;100.00;100700.03;5021984;28;20764;-84
2022/10/23 11:22:22;;;;;;;8.95;3.83;;;;;;;14.63;100.00;100724.03;5013501;28;20033;-84
2022/10/23 11:25:11;;;;;;;6.57;3.47;;;;;;;14.67;100.00;100727.97;5006309;28;20116;-84
2022/10/23 11:27:47;;;;;;;8.68;3.40;;;;;;;14.73;100.00;100710.84;5002702;28;20033;-85
2022/10/23 11:30:23;;;;;;;9.27;3.97;;;;;;;14.77;100.00;100702.56;5017150;28;20033;-87